Decoded Metar for KGEG (SPOKANE in WA, USA) (IATA:GEG) | Meteo·Mobile Aviation Weather
aviador You're here:

KGEG Decoded Metar

SPOKANE in WA, USA
Report Time2018-09-21 16:53:00
UTC Time2018-09-21 17:18:15
Flight Rules vfr VFR
Wind170° at 10 kt
W.Decomp.*RWY 21: 5.3 kt HW 8.5 kt LCW
RWY 07: 1.4 kt HW 9.9 kt RCW
W.Rank170° ranks 9
Current wind is above 170° avg. (6.4)
Visibility9999 m
Phenomena:N/A
Clouds:Few 100 Hf
Broken 200 Hf
Expected CloudBase > 5,600 ft AGL from Temp-Dew spread
Ceiling20,000 ft
Temp16°C (ISA +6)
Dew Point02°C (39% RH)
AAT10.7°C
QNH1017 hPa
Density Alt3,058 ft
Elevation2,411 ft
Report Wrong Elevation
Raw Report
KGEG 211653Z 17010KT 10SM FEW100 BKN200 16/02 A3004 RMK AO2 SLP166
T01610022=

Extra information for KGEG:More info

Metar Taf Metar & Taf Last 4 Metars F.Rules Stats Wind Profile Meteogram Temp Stats Airport Information Weather charts Add Link Nearby VenuesMetar ALERT Operation Metar Decoded Social comments

AIRNAV info for KGEG